logo
Search for airport 
image banner adimage banner adimage banner ad
image banner ad

SVEN - El Capitan

Located in Zulia, Venezuela

ICAO - SVEN, IATA -

Data provided by Airmate  

General information

Coordinates: N10°5'21" W72°33'17"
Elevation is 452 feet MSL.
Magnetic variation is -9° East
View others Airports in Zulia

Operational data

Special qualification required
Current time UTC:
Current local time:
Weather at : - ( 0 km )
METAR: TJBQ 191250Z 00000KT 10SM CLR 29/23 A2996
View NOTAMs / SUP AIP / TFR affecting this airport [VIEW]
Communications frequencies: [VIEW]

Runways:

RWY identifierQFULength (ft)Width (ft)SurfaceLDA (ft)
02581862ASPH
20184°581862ASPH

Airport contact information

Address: Zulia Venezuela

Satellite view of SVEN